createdAt,value
2019-01-20T00:00:55.534Z,101759.02
2019-01-20T00:03:24.444Z,101757.48
2019-01-20T00:05:53.428Z,101754.53
2019-01-20T00:08:22.392Z,101757.95
2019-01-20T00:10:51.411Z,101758.42
2019-01-20T00:13:20.409Z,101761.84
2019-01-20T00:15:49.427Z,101752.52
2019-01-20T00:18:18.369Z,101751.55
2019-01-20T00:20:47.389Z,101758.77
2019-01-20T00:23:16.425Z,101757.09
2019-01-20T00:25:46.236Z,101752.52
2019-01-20T00:28:15.250Z,101764.77
2019-01-20T00:30:44.211Z,101766.50
2019-01-20T00:33:13.126Z,101762.97
2019-01-20T00:35:42.135Z,101762.06
2019-01-20T00:38:11.214Z,101765.13
2019-01-20T00:40:40.145Z,101765.45
2019-01-20T00:43:09.074Z,101760.97
2019-01-20T00:45:37.994Z,101760.66
2019-01-20T00:48:07.022Z,101762.53
2019-01-20T00:50:35.902Z,101759.34
2019-01-20T00:53:04.937Z,101761.61
2019-01-20T00:55:33.874Z,101758.20
2019-01-20T00:58:02.860Z,101751.38
2019-01-20T01:00:33.072Z,101746.27
2019-01-20T01:03:01.955Z,101748.89
2019-01-20T01:05:31.219Z,101752.41
2019-01-20T01:08:00.200Z,101752.41
2019-01-20T01:10:29.241Z,101752.17
2019-01-20T01:12:59.284Z,101748.41
2019-01-20T01:15:28.197Z,101746.38
2019-01-20T01:17:57.200Z,101744.95
2019-01-20T01:20:25.992Z,101742.25
2019-01-20T01:22:54.833Z,101744.34
2019-01-20T01:25:23.690Z,101743.62
2019-01-20T01:27:52.519Z,101734.67
2019-01-20T01:30:23.198Z,101739.34
2019-01-20T01:32:52.064Z,101736.41
2019-01-20T01:35:21.126Z,101746.45
2019-01-20T01:37:50.067Z,101743.98
2019-01-20T01:40:19.244Z,101742.92
2019-01-20T01:42:48.125Z,101745.55
2019-01-20T01:45:18.687Z,101741.31
2019-01-20T01:47:47.683Z,101743.05
2019-01-20T01:50:17.566Z,101747.16
2019-01-20T01:52:46.476Z,101746.33
2019-01-20T01:55:15.537Z,101752.92
2019-01-20T01:57:44.399Z,101752.22
2019-01-20T02:00:18.245Z,101753.75
2019-01-20T02:02:47.183Z,101758.92
2019-01-20T02:05:16.280Z,101751.23
2019-01-20T02:07:45.167Z,101749.80
2019-01-20T02:13:41.628Z,101750.70
2019-01-20T02:16:55.283Z,101746.39
2019-01-20T02:19:24.230Z,101749.80
2019-01-20T02:21:53.113Z,101748.27
2019-01-20T02:24:22.025Z,101748.27
2019-01-20T02:26:51.001Z,101747.51
2019-01-20T02:29:19.953Z,101744.55
2019-01-20T02:31:48.818Z,101747.92
2019-01-20T02:34:17.849Z,101750.20
2019-01-20T02:36:46.761Z,101749.33
2019-01-20T02:39:15.588Z,101750.38
2019-01-20T02:41:44.473Z,101749.65
2019-01-20T02:44:13.370Z,101750.72
2019-01-20T02:46:42.328Z,101753.17
2019-01-20T02:49:11.267Z,101753.53
2019-01-20T02:51:40.057Z,101757.88
2019-01-20T02:54:09.030Z,101759.53
2019-01-20T02:56:37.897Z,101758.23
2019-01-20T02:59:06.772Z,101755.53
2019-01-20T03:01:35.628Z,101760.13
2019-01-20T03:04:04.580Z,101761.29
2019-01-20T03:06:33.602Z,101752.41
2019-01-20T03:09:04.119Z,101754.86
2019-01-20T03:11:32.993Z,101759.79
2019-01-20T03:14:01.800Z,101749.09
2019-01-20T03:16:30.753Z,101751.41
2019-01-20T03:18:59.692Z,101748.06
2019-01-20T03:21:28.631Z,101746.70
2019-01-20T03:23:57.457Z,101747.59
2019-01-20T03:26:26.370Z,101751.14
2019-01-20T03:28:55.231Z,101741.02
2019-01-20T03:31:24.123Z,101742.06
2019-01-20T03:33:52.915Z,101738.89
2019-01-20T03:36:21.755Z,101732.95
2019-01-20T03:38:50.598Z,101737.89
2019-01-20T03:41:19.548Z,101735.80
2019-01-20T03:43:48.431Z,101735.66
2019-01-20T03:46:17.306Z,101738.63
2019-01-20T03:48:46.242Z,101731.20
2019-01-20T03:51:15.121Z,101732.34
2019-01-20T03:53:44.118Z,101736.55
2019-01-20T03:56:12.952Z,101736.08
2019-01-20T03:58:41.938Z,101734.52
2019-01-20T04:01:10.901Z,101731.58
2019-01-20T04:03:39.781Z,101738.17
2019-01-20T04:06:08.650Z,101733.80
2019-01-20T04:08:37.597Z,101733.17
2019-01-20T04:11:06.497Z,101730.70
2019-01-20T04:13:35.370Z,101731.98
2019-01-20T04:16:04.540Z,101741.34
2019-01-20T04:18:33.396Z,101738.15
2019-01-20T04:21:02.197Z,101736.64
2019-01-20T04:23:31.134Z,101738.31
2019-01-20T04:25:59.929Z,101744.97
2019-01-20T04:28:28.792Z,101730.91
2019-01-20T04:30:57.674Z,101742.77
2019-01-20T04:33:26.530Z,101740.98
2019-01-20T04:35:55.412Z,101741.61
2019-01-20T04:38:24.273Z,101745.27
2019-01-20T04:40:53.148Z,101745.08
2019-01-20T04:43:22.068Z,101746.87
2019-01-20T04:45:50.870Z,101743.02
2019-01-20T04:48:19.737Z,101743.26
2019-01-20T04:50:48.603Z,101741.44
2019-01-20T04:53:17.592Z,101741.11
2019-01-20T04:55:46.469Z,101743.11
2019-01-20T04:58:15.742Z,101743.69
2019-01-20T05:00:44.658Z,101746.37
2019-01-20T05:03:13.588Z,101754.12
2019-01-20T05:05:42.464Z,101758.64
2019-01-20T05:08:11.389Z,101753.19
2019-01-20T05:10:40.296Z,101761.63
2019-01-20T05:13:09.238Z,101756.29
2019-01-20T05:15:38.200Z,101758.73
2019-01-20T05:18:07.158Z,101751.69
2019-01-20T05:20:36.088Z,101756.47
2019-01-20T05:23:05.066Z,101760.91
2019-01-20T05:25:33.844Z,101761.94
2019-01-20T05:28:02.700Z,101763.38
2019-01-20T05:30:31.702Z,101763.53
2019-01-20T05:33:00.581Z,101763.97
2019-01-20T05:35:29.547Z,101768.48
2019-01-20T05:37:58.423Z,101762.75
2019-01-20T05:40:27.373Z,101766.08
2019-01-20T05:42:56.262Z,101766.59
2019-01-20T05:45:25.987Z,101764.47
2019-01-20T05:47:54.926Z,101770.46
2019-01-20T05:50:23.874Z,101764.58
2019-01-20T05:52:52.732Z,101771.25
2019-01-20T05:55:21.703Z,101768.59
2019-01-20T05:57:50.556Z,101778.25
2019-01-20T06:00:21.972Z,101770.36
2019-01-20T06:02:50.925Z,101773.33
2019-01-20T06:05:19.765Z,101765.86
2019-01-20T06:07:48.677Z,101777.38
2019-01-20T06:10:17.614Z,101772.75
2019-01-20T06:12:53.642Z,101771.03
2019-01-20T06:15:18.458Z,101769.34
2019-01-20T06:17:47.385Z,101774.14
2019-01-20T06:20:16.942Z,101777.66
2019-01-20T06:22:45.904Z,101774.12
2019-01-20T06:25:14.848Z,101776.04
2019-01-20T06:27:43.967Z,101775.91
2019-01-20T06:30:21.507Z,101779.78
2019-01-20T06:32:50.425Z,101779.98
2019-01-20T06:35:19.272Z,101783.13
2019-01-20T06:37:48.200Z,101777.90
2019-01-20T06:40:17.071Z,101773.64
2019-01-20T06:42:45.998Z,101780.84
2019-01-20T06:45:14.986Z,101780.77
2019-01-20T06:47:43.854Z,101787.75
2019-01-20T06:50:13.679Z,101787.37
2019-01-20T06:52:42.601Z,101785.80
2019-01-20T06:55:12.638Z,101785.82
2019-01-20T06:57:41.613Z,101796.04
2019-01-20T07:00:16.248Z,101794.30
2019-01-20T07:02:45.225Z,101794.94
2019-01-20T07:05:14.251Z,101801.72
2019-01-20T07:07:43.165Z,101801.19
2019-01-20T07:10:13.224Z,101809.19
2019-01-20T07:12:42.085Z,101806.81
2019-01-20T07:15:15.979Z,101809.09
2019-01-20T07:17:44.822Z,101821.48
2019-01-20T07:22:42.489Z,101822.57
2019-01-20T07:25:11.723Z,101832.33
2019-01-20T07:27:40.754Z,101831.97
2019-01-20T07:30:13.019Z,101830.72
2019-01-20T07:32:41.899Z,101838.02
2019-01-20T07:35:10.840Z,101837.59
2019-01-20T07:37:39.705Z,101841.16
2019-01-20T07:40:10.497Z,101840.95
2019-01-20T07:42:39.447Z,101841.41
2019-01-20T07:45:10.307Z,101850.02
2019-01-20T07:47:39.220Z,101849.36
2019-01-20T07:50:12.033Z,101853.34
2019-01-20T07:52:41.015Z,101858.19
2019-01-20T07:55:10.183Z,101854.33
2019-01-20T07:57:39.085Z,101855.59
2019-01-20T08:00:10.645Z,101859.47
2019-01-20T08:02:39.522Z,101860.40
2019-01-20T08:05:08.661Z,101860.46
2019-01-20T08:07:37.628Z,101867.23
2019-01-20T08:10:09.787Z,101859.23
2019-01-20T08:12:38.786Z,101862.33
2019-01-20T08:15:08.868Z,101865.02
2019-01-20T08:17:37.782Z,101866.14
2019-01-20T08:20:09.010Z,101870.22
2019-01-20T08:22:37.909Z,101872.19
2019-01-20T08:25:07.243Z,101878.73
2019-01-20T08:27:36.249Z,101879.16
2019-01-20T08:30:06.267Z,101884.58
2019-01-20T08:32:35.222Z,101884.94
2019-01-20T08:35:04.236Z,101889.12
2019-01-20T08:37:34.320Z,101883.66
2019-01-20T08:40:03.453Z,101890.47
2019-01-20T08:42:32.363Z,101892.73
2019-01-20T08:45:01.325Z,101891.14
2019-01-20T08:47:39.697Z,101899.39
2019-01-20T08:50:11.791Z,101897.28
2019-01-20T08:52:40.694Z,101900.17
2019-01-20T08:55:10.165Z,101899.13
2019-01-20T08:57:39.009Z,101901.26
2019-01-20T09:00:12.335Z,101908.63
2019-01-20T09:02:41.286Z,101909.31
2019-01-20T09:05:10.260Z,101909.73
2019-01-20T09:07:39.235Z,101912.41
2019-01-20T09:10:21.269Z,101914.64
2019-01-20T09:12:50.464Z,101921.29
2019-01-20T09:15:19.428Z,101927.76
2019-01-20T09:17:48.380Z,101927.92
2019-01-20T09:20:17.345Z,101926.97
2019-01-20T09:22:46.255Z,101924.16
2019-01-20T09:25:15.321Z,101923.02
2019-01-20T09:27:44.335Z,101927.67
2019-01-20T09:30:18.601Z,101931.70
2019-01-20T09:32:47.614Z,101935.39
2019-01-20T09:35:16.603Z,101934.86
2019-01-20T09:37:45.587Z,101933.47
2019-01-20T09:40:15.120Z,101933.72
2019-01-20T09:42:44.044Z,101937.13
2019-01-20T09:45:28.479Z,101936.27
2019-01-20T09:47:57.562Z,101938.49
2019-01-20T09:50:26.518Z,101940.08
2019-01-20T09:52:55.677Z,101936.48
2019-01-20T09:55:24.766Z,101941.56
2019-01-20T09:57:53.690Z,101944.80
2019-01-20T10:00:24.409Z,101951.48
2019-01-20T10:02:53.472Z,101945.45
2019-01-20T10:05:22.947Z,101947.09
2019-01-20T10:07:52.432Z,101949.69
2019-01-20T10:10:21.470Z,101949.27
2019-01-20T10:12:50.470Z,101947.45
2019-01-20T10:15:19.451Z,101953.02
2019-01-20T10:17:48.944Z,101954.84
2019-01-20T10:20:28.959Z,101952.94
2019-01-20T10:22:58.030Z,101951.18
2019-01-20T10:25:27.128Z,101955.37
2019-01-20T10:27:56.213Z,101956.79
2019-01-20T10:30:27.418Z,101955.03
2019-01-20T10:32:56.459Z,101968.80
2019-01-20T10:35:29.876Z,101962.49
2019-01-20T10:38:00.505Z,101968.23
2019-01-20T10:40:29.486Z,101975.75
2019-01-20T10:42:58.485Z,101966.06
2019-01-20T10:45:27.464Z,101974.97
2019-01-20T10:47:56.367Z,101976.11
2019-01-20T10:50:25.322Z,101973.81
2019-01-20T10:52:54.380Z,101979.06
2019-01-20T10:55:23.309Z,101978.34
2019-01-20T10:57:52.349Z,101968.87
2019-01-20T11:00:24.356Z,101979.16
2019-01-20T11:02:53.264Z,101976.34
2019-01-20T11:05:24.927Z,101977.36
2019-01-20T11:07:52.942Z,101979.63
2019-01-20T11:10:21.848Z,101973.38
2019-01-20T11:12:50.815Z,101973.27
2019-01-20T11:15:19.868Z,101977.12
2019-01-20T11:17:48.778Z,101970.01
2019-01-20T11:20:17.830Z,101983.30
2019-01-20T11:22:46.816Z,101982.72
2019-01-20T11:25:21.383Z,101983.69
2019-01-20T11:27:50.272Z,101983.11
2019-01-20T11:30:19.290Z,101991.06
2019-01-20T11:32:48.192Z,101984.56
2019-01-20T11:35:17.819Z,101985.34
2019-01-20T11:37:47.039Z,101981.58
2019-01-20T11:40:16.140Z,101986.30
2019-01-20T11:42:45.029Z,101977.27
2019-01-20T11:45:18.606Z,101981.45
2019-01-20T11:47:47.640Z,101985.23
2019-01-20T11:50:17.042Z,101987.27
2019-01-20T11:52:46.065Z,101986.80
2019-01-20T11:55:16.743Z,101992.18
2019-01-20T11:57:45.749Z,101982.47
2019-01-20T12:00:17.937Z,101980.84
2019-01-20T12:02:46.907Z,101985.09
2019-01-20T12:05:15.943Z,101986.27
2019-01-20T12:07:44.954Z,101981.41
2019-01-20T12:10:14.156Z,101982.02
2019-01-20T12:12:45.668Z,101982.94
2019-01-20T12:15:14.708Z,101986.09
2019-01-20T12:17:43.674Z,101984.67
2019-01-20T12:20:13.091Z,101987.86
2019-01-20T12:22:42.002Z,101986.36
2019-01-20T12:25:13.661Z,101986.63
2019-01-20T12:27:42.635Z,101978.27
2019-01-20T12:30:15.159Z,101987.23
2019-01-20T12:32:44.152Z,101985.27
2019-01-20T12:35:13.077Z,101986.36
2019-01-20T12:37:42.004Z,101987.20
2019-01-20T12:40:17.658Z,101988.05
2019-01-20T12:42:46.667Z,101984.97
2019-01-20T12:45:15.595Z,101987.89
2019-01-20T12:47:44.572Z,101982.47
2019-01-20T12:50:14.690Z,101983.76
2019-01-20T12:52:43.852Z,101975.53
2019-01-20T12:55:13.234Z,101973.86
2019-01-20T12:57:42.237Z,101975.16
2019-01-20T13:00:13.496Z,101979.18
2019-01-20T13:02:42.499Z,101980.58
2019-01-20T13:05:11.493Z,101977.21
2019-01-20T13:07:40.538Z,101980.66
2019-01-20T13:10:10.778Z,101979.13
2019-01-20T13:12:39.879Z,101978.19
2019-01-20T13:15:11.040Z,101984.22
2019-01-20T13:17:40.005Z,101986.52
2019-01-20T13:20:11.542Z,101992.55
2019-01-20T13:22:40.558Z,101996.19
2019-01-20T13:25:11.372Z,102000.07
2019-01-20T13:27:40.383Z,101997.01
2019-01-20T13:30:13.004Z,102004.80
2019-01-20T13:32:42.078Z,101999.50
2019-01-20T13:35:11.270Z,102006.15
2019-01-20T13:37:42.735Z,102001.59
2019-01-20T13:40:14.870Z,102004.77
2019-01-20T13:42:43.820Z,102010.55
2019-01-20T13:45:13.132Z,102006.77
2019-01-20T13:47:48.515Z,102000.73
2019-01-20T13:50:15.383Z,102004.25
2019-01-20T13:52:44.311Z,102003.79
2019-01-20T13:55:13.612Z,102010.05
2019-01-20T13:57:42.674Z,102001.70
2019-01-20T14:00:21.626Z,102014.62
2019-01-20T14:02:50.591Z,102017.58
2019-01-20T14:05:19.614Z,102013.91
2019-01-20T14:07:48.663Z,102015.30
2019-01-20T14:10:18.661Z,102013.02
2019-01-20T14:12:47.680Z,102015.56
2019-01-20T14:15:16.593Z,102020.31
2019-01-20T14:17:45.620Z,102024.45
2019-01-20T14:20:16.962Z,102023.54
2019-01-20T14:22:46.121Z,102020.84
2019-01-20T14:25:16.966Z,102020.23
2019-01-20T14:27:46.015Z,102017.52
2019-01-20T14:30:20.338Z,102022.70
2019-01-20T14:32:49.270Z,102021.14
2019-01-20T14:35:18.221Z,102025.80
2019-01-20T14:37:47.218Z,102022.63
2019-01-20T14:40:16.506Z,102027.69
2019-01-20T14:42:45.533Z,102035.36
2019-01-20T14:45:15.053Z,102035.81
2019-01-20T14:47:44.109Z,102033.89
2019-01-20T14:50:16.487Z,102037.88
2019-01-20T14:52:45.502Z,102037.20
2019-01-20T14:55:14.638Z,102038.88
2019-01-20T14:57:43.615Z,102037.55
2019-01-20T15:00:16.182Z,102044.22
2019-01-20T15:02:45.194Z,102041.73
2019-01-20T15:05:14.283Z,102041.75
2019-01-20T15:07:43.228Z,102042.50
2019-01-20T15:10:12.290Z,102041.91
2019-01-20T15:12:41.270Z,102044.74
2019-01-20T15:15:12.301Z,102040.90
2019-01-20T15:17:41.270Z,102039.05
2019-01-20T15:20:10.807Z,102043.87
2019-01-20T15:22:39.912Z,102048.30
2019-01-20T15:25:10.239Z,102048.26
2019-01-20T15:27:39.148Z,102051.27
2019-01-20T15:30:12.916Z,102047.73
2019-01-20T15:32:41.963Z,102051.05
2019-01-20T15:35:10.961Z,102055.48
2019-01-20T15:37:40.096Z,102050.11
2019-01-20T15:40:10.268Z,102059.12
2019-01-20T15:42:39.269Z,102059.38
2019-01-20T15:45:16.389Z,102056.58
2019-01-20T15:47:40.837Z,102056.87
2019-01-20T15:50:12.852Z,102064.24
2019-01-20T15:52:41.741Z,102067.50
2019-01-20T15:55:10.910Z,102067.47
2019-01-20T15:57:39.925Z,102064.20
2019-01-20T16:00:11.871Z,102064.20
2019-01-20T16:02:40.891Z,102068.19
2019-01-20T16:05:09.961Z,102073.92
2019-01-20T16:07:38.983Z,102065.95
2019-01-20T16:10:09.234Z,102070.05
2019-01-20T16:12:38.321Z,102073.83
2019-01-20T16:15:14.959Z,102077.37
2019-01-20T16:17:44.599Z,102074.89
2019-01-20T16:20:14.291Z,102083.20
2019-01-20T16:22:43.384Z,102079.28
2019-01-20T16:25:17.677Z,102083.78
2019-01-20T16:27:46.698Z,102079.65
2019-01-20T16:30:21.312Z,102085.17
2019-01-20T16:32:50.330Z,102081.56
2019-01-20T16:35:19.223Z,102087.92
2019-01-20T16:37:48.205Z,102087.76
2019-01-20T16:40:18.970Z,102088.02
2019-01-20T16:42:47.962Z,102084.98
2019-01-20T16:45:18.856Z,102088.38
2019-01-20T16:47:47.849Z,102085.66
2019-01-20T16:50:19.311Z,102092.78
2019-01-20T16:52:48.261Z,102093.53
2019-01-20T16:55:17.265Z,102097.50
2019-01-20T16:57:46.286Z,102094.02
2019-01-20T17:00:21.101Z,102101.28
2019-01-20T17:02:50.126Z,102097.05
2019-01-20T17:05:19.124Z,102097.77
2019-01-20T17:07:48.137Z,102101.45
2019-01-20T17:10:19.986Z,102109.73
2019-01-20T17:12:49.194Z,102105.42
2019-01-20T17:15:20.626Z,102108.37
2019-01-20T17:17:49.600Z,102109.59
2019-01-20T17:20:18.936Z,102114.01
2019-01-20T17:22:48.175Z,102113.83
2019-01-20T17:25:18.494Z,102112.37
2019-01-20T17:27:47.552Z,102109.41
2019-01-20T17:30:18.832Z,102108.16
2019-01-20T17:32:47.886Z,102114.25
2019-01-20T17:35:16.941Z,102119.56
2019-01-20T17:37:45.951Z,102115.69
2019-01-20T17:40:20.137Z,102118.83
2019-01-20T17:42:49.134Z,102126.03
2019-01-20T17:45:20.883Z,102128.25
2019-01-20T17:47:49.853Z,102126.96
2019-01-20T17:50:27.354Z,102124.19
2019-01-20T17:52:56.476Z,102122.80
2019-01-20T17:55:25.896Z,102130.36
2019-01-20T17:57:54.827Z,102135.42
2019-01-20T18:00:30.014Z,102133.95
2019-01-20T18:02:59.473Z,102138.13
2019-01-20T18:05:29.188Z,102142.70
2019-01-20T18:07:58.861Z,102141.80
2019-01-20T18:10:28.105Z,102145.95
2019-01-20T18:12:58.044Z,102140.95
2019-01-20T18:15:27.276Z,102142.27
2019-01-20T18:17:56.884Z,102142.63
2019-01-20T18:20:28.173Z,102146.97
2019-01-20T18:22:57.848Z,102146.30
2019-01-20T18:25:27.243Z,102153.21
2019-01-20T18:27:56.769Z,102148.71
2019-01-20T18:30:29.670Z,102154.62
2019-01-20T18:32:59.269Z,102161.44
2019-01-20T18:35:29.139Z,102165.84
2019-01-20T18:37:58.612Z,102157.45
2019-01-20T18:40:28.542Z,102171.20
2019-01-20T18:42:57.775Z,102157.09
2019-01-20T18:45:29.240Z,102162.10
2019-01-20T18:47:58.556Z,102165.30
2019-01-20T18:50:42.919Z,102162.52
2019-01-20T18:53:11.999Z,102166.02
2019-01-20T18:55:41.321Z,102175.79
2019-01-20T18:58:10.674Z,102176.41
2019-01-20T19:00:45.679Z,102174.83
2019-01-20T19:03:14.871Z,102175.98
2019-01-20T19:05:44.067Z,102178.00
2019-01-20T19:08:13.392Z,102180.40
2019-01-20T19:10:43.118Z,102192.25
2019-01-20T19:13:12.319Z,102189.02
2019-01-20T19:16:25.787Z,102197.95
2019-01-20T19:18:55.136Z,102190.03
2019-01-20T19:21:24.148Z,102190.50
2019-01-20T19:23:53.245Z,102188.84
2019-01-20T19:26:22.686Z,102194.59
2019-01-20T19:28:52.361Z,102195.33
2019-01-20T19:31:47.777Z,102199.53
2019-01-20T19:34:56.637Z,102200.59
2019-01-20T19:40:19.165Z,102208.19
2019-01-20T19:43:07.347Z,102207.17
2019-01-20T19:49:04.336Z,102206.56
2019-01-20T19:54:32.603Z,102205.59
2019-01-20T19:57:02.202Z,102204.40
2019-01-20T19:59:31.552Z,102211.27
2019-01-20T20:02:00.666Z,102211.31
2019-01-20T20:04:30.027Z,102212.14
2019-01-20T20:06:59.294Z,102211.08
2019-01-20T20:09:28.369Z,102208.09
2019-01-20T20:11:57.469Z,102214.53
2019-01-20T20:14:26.552Z,102216.66
2019-01-20T20:16:55.855Z,102214.27
2019-01-20T20:19:25.312Z,102223.66
2019-01-20T20:21:54.432Z,102226.37
2019-01-20T20:24:25.448Z,102226.14
2019-01-20T20:26:54.798Z,102233.95
2019-01-20T20:29:23.917Z,102236.24
2019-01-20T20:31:53.085Z,102246.06
2019-01-20T20:34:22.236Z,102246.47
2019-01-20T20:36:51.817Z,102243.33
2019-01-20T20:39:22.170Z,102245.08
2019-01-20T20:41:51.953Z,102248.36
2019-01-20T20:44:21.643Z,102243.31
2019-01-20T20:46:51.071Z,102250.94
2019-01-20T20:49:20.347Z,102257.49
2019-01-20T20:51:49.830Z,102265.23
2019-01-20T20:54:19.447Z,102266.72
2019-01-20T20:56:49.937Z,102262.50
2019-01-20T20:59:19.942Z,102265.14
2019-01-20T21:01:49.411Z,102269.08
2019-01-20T21:04:18.656Z,102266.22
2019-01-20T21:06:48.238Z,102278.56
2019-01-20T21:09:17.451Z,102269.19
2019-01-20T21:11:46.520Z,102272.19
2019-01-20T21:14:15.662Z,102272.70
2019-01-20T21:16:45.116Z,102276.01
2019-01-20T21:19:14.222Z,102271.59
2019-01-20T21:21:43.297Z,102269.42
2019-01-20T21:24:12.539Z,102272.92
2019-01-20T21:26:44.534Z,102270.12
2019-01-20T21:29:12.425Z,102274.77
2019-01-20T21:31:41.498Z,102273.66
2019-01-20T21:34:10.839Z,102276.98
2019-01-20T21:36:40.077Z,102276.75
2019-01-20T21:39:09.985Z,102279.40
2019-01-20T21:41:38.998Z,102282.72
2019-01-20T21:44:07.974Z,102269.34
2019-01-20T21:46:37.123Z,102277.03
2019-01-20T21:49:06.134Z,102284.75
2019-01-20T21:51:35.204Z,102287.73
2019-01-20T21:54:04.199Z,102289.81
2019-01-20T21:56:33.273Z,102292.20
2019-01-20T21:59:02.317Z,102289.64
2019-01-20T22:01:31.590Z,102287.28
2019-01-20T22:04:00.825Z,102287.52
2019-01-20T22:06:29.882Z,102292.13
2019-01-20T22:08:59.031Z,102291.27
2019-01-20T22:11:28.078Z,102281.75
2019-01-20T22:13:57.370Z,102290.44
2019-01-20T22:16:27.172Z,102283.80
2019-01-20T22:18:56.619Z,102288.11
2019-01-20T22:21:25.594Z,102286.83
2019-01-20T22:23:54.630Z,102285.38
2019-01-20T22:26:24.552Z,102284.76
2019-01-20T22:28:53.613Z,102284.28
2019-01-20T22:31:23.181Z,102290.77
2019-01-20T22:33:52.503Z,102291.38
2019-01-20T22:36:21.576Z,102299.32
2019-01-20T22:38:50.650Z,102299.78
2019-01-20T22:41:19.631Z,102301.66
2019-01-20T22:43:48.674Z,102297.05
2019-01-20T22:46:17.743Z,102297.59
2019-01-20T22:48:46.708Z,102296.00
2019-01-20T22:51:15.792Z,102292.76
2019-01-20T22:53:44.813Z,102294.54
2019-01-20T22:56:13.839Z,102289.69
2019-01-20T22:58:43.232Z,102289.52
2019-01-20T23:01:20.436Z,102284.89
2019-01-20T23:03:50.020Z,102285.73
2019-01-20T23:06:19.096Z,102289.62
2019-01-20T23:08:48.109Z,102289.54
2019-01-20T23:11:17.115Z,102294.47
2019-01-20T23:13:46.158Z,102292.20
2019-01-20T23:16:15.242Z,102302.53
2019-01-20T23:18:44.420Z,102300.05
2019-01-20T23:21:13.513Z,102300.93
2019-01-20T23:23:42.390Z,102305.66
2019-01-20T23:26:11.891Z,102308.36
2019-01-20T23:28:40.915Z,102313.59
2019-01-20T23:31:10.043Z,102315.09
2019-01-20T23:33:39.644Z,102319.50
2019-01-20T23:36:08.653Z,102317.61
2019-01-20T23:38:37.597Z,102314.31
2019-01-20T23:41:06.573Z,102315.77
2019-01-20T23:43:35.478Z,102306.77
2019-01-20T23:46:04.453Z,102322.48
2019-01-20T23:48:33.601Z,102326.98
2019-01-20T23:51:02.519Z,102317.70
2019-01-20T23:53:31.443Z,102307.77
2019-01-20T23:56:00.758Z,102307.22
2019-01-20T23:58:30.248Z,102312.36
